Time;durP1;ratioP1;P1;durP2;ratioP2;P2;SDS_P1;SDS_P2;PMS_P1;PMS_P2;Temp;Humidity;BMP_temperature;BMP_pressure;BME280_temperature;BME280_humidity;BME280_pressure;Samples;Min_cycle;Max_cycle;Signal;HPM_P1;HPM_P2
2022/01/17 00:00:37;;;;;;;21.7;13.1;;;;;;;2.18;66.36621;96403.58;;;;
2022/01/17 00:01:38;;;;;;;21.7;13.1;;;;;;;2.18;66.36621;96403.58;;;;
2022/01/17 00:02:40;;;;;;;21.7;13.1;;;;;;;2.18;66.36621;96403.58;;;;
2022/01/17 00:03:42;;;;;;;21;12.7;;;;;;;2.22;66.5;96410.17;;;;
2022/01/17 00:04:42;;;;;;;21;12.7;;;;;;;2.22;66.5;96410.17;;;;
2022/01/17 00:05:43;;;;;;;21;12.7;;;;;;;2.22;66.5;96410.17;;;;
2022/01/17 00:06:44;;;;;;;21;12.7;;;;;;;2.22;66.5;96410.17;;;;
2022/01/17 00:07:45;;;;;;;21;12.7;;;;;;;2.22;66.5;96410.17;;;;
2022/01/17 00:08:46;;;;;;;21;12.7;;;;;;;2.22;66.5;96410.17;;;;
2022/01/17 00:09:46;;;;;;;21;12.7;;;;;;;2.22;66.5;96410.17;;;;
2022/01/17 00:10:47;;;;;;;21;12.7;;;;;;;2.22;66.5;96410.17;;;;
2022/01/17 00:11:49;;;;;;;21;12.7;;;;;;;2.22;66.5;96410.17;;;;
2022/01/17 00:12:52;;;;;;;21;12.7;;;;;;;2.22;66.5;96410.17;;;;
2022/01/17 00:13:52;;;;;;;23.9;12.85;;;;;;;2.24;66.71094;96403.35;;;;
2022/01/17 00:14:55;;;;;;;23.9;12.85;;;;;;;2.24;66.71094;96403.35;;;;
2022/01/17 00:15:59;;;;;;;23.9;12.85;;;;;;;2.24;66.71094;96403.35;;;;
2022/01/17 00:17:10;;;;;;;23.9;12.85;;;;;;;2.24;66.71094;96403.35;;;;
2022/01/17 00:18:42;;;;;;;23.9;12.85;;;;;;;2.24;66.71094;96403.35;;;;
2022/01/17 00:19:45;;;;;;;23.9;12.85;;;;;;;2.24;66.71094;96403.35;;;;
2022/01/17 00:20:46;;;;;;;23.9;12.85;;;;;;;2.24;66.71094;96403.35;;;;
2022/01/17 00:21:47;;;;;;;23.9;12.85;;;;;;;2.24;66.71094;96403.35;;;;
2022/01/17 00:22:49;;;;;;;23.9;12.85;;;;;;;2.24;66.71094;96403.35;;;;
2022/01/17 00:23:49;;;;;;;23.9;12.85;;;;;;;2.24;66.71094;96403.35;;;;
2022/01/17 00:24:50;;;;;;;19.9;11.9;;;;;;;2.19;66.75684;96392.33;;;;
2022/01/17 00:25:51;;;;;;;19.9;11.9;;;;;;;2.19;66.75684;96392.33;;;;
2022/01/17 00:26:52;;;;;;;19.9;11.9;;;;;;;2.19;66.75684;96392.33;;;;
2022/01/17 00:27:52;;;;;;;19.9;11.9;;;;;;;2.19;66.75684;96392.33;;;;
2022/01/17 00:28:53;;;;;;;19.9;11.9;;;;;;;2.19;66.75684;96392.33;;;;
2022/01/17 00:29:54;;;;;;;19.9;11.9;;;;;;;2.19;66.75684;96392.33;;;;
2022/01/17 00:30:54;;;;;;;19.9;11.9;;;;;;;2.19;66.75684;96392.33;;;;
2022/01/17 00:31:55;;;;;;;19.9;11.9;;;;;;;2.19;66.75684;96392.33;;;;
2022/01/17 00:32:56;;;;;;;19.9;11.9;;;;;;;2.19;66.75684;96392.33;;;;
2022/01/17 00:33:57;;;;;;;19.9;11.9;;;;;;;2.19;66.75684;96392.33;;;;
2022/01/17 00:34:57;;;;;;;19.9;11.9;;;;;;;2.19;66.75684;96392.33;;;;
2022/01/17 00:35:58;;;;;;;19.9;11.9;;;;;;;2.19;66.75684;96392.33;;;;
2022/01/17 00:36:58;;;;;;;19.9;11.9;;;;;;;2.19;66.75684;96392.33;;;;
2022/01/17 00:37:59;;;;;;;19.9;11.9;;;;;;;2.19;66.75684;96392.33;;;;
2022/01/17 00:38:59;;;;;;;19.9;11.9;;;;;;;2.19;66.75684;96392.33;;;;
2022/01/17 00:40:00;;;;;;;19.9;11.9;;;;;;;2.19;66.75684;96392.33;;;;
2022/01/17 00:41:00;;;;;;;19.9;11.9;;;;;;;2.19;66.75684;96392.33;;;;
2022/01/17 00:42:01;;;;;;;19.9;11.9;;;;;;;2.19;66.75684;96392.33;;;;
2022/01/17 00:43:01;;;;;;;19.9;11.9;;;;;;;2.19;66.75684;96392.33;;;;
2022/01/17 00:44:03;;;;;;;19.9;11.9;;;;;;;2.19;66.75684;96392.33;;;;
2022/01/17 00:45:07;;;;;;;19.9;11.9;;;;;;;2.19;66.75684;96392.33;;;;
2022/01/17 00:46:09;;;;;;;19;10.8;;;;;;;2.15;67.27637;96407.79;;;;
2022/01/17 00:47:09;;;;;;;19;10.8;;;;;;;2.15;67.27637;96407.79;;;;
2022/01/17 00:48:10;;;;;;;19;10.8;;;;;;;2.15;67.27637;96407.79;;;;
2022/01/17 00:49:11;;;;;;;19;10.8;;;;;;;2.15;67.27637;96407.79;;;;
2022/01/17 00:50:11;;;;;;;19;10.8;;;;;;;2.15;67.27637;96407.79;;;;
2022/01/17 00:51:12;;;;;;;19;10.8;;;;;;;2.15;67.27637;96407.79;;;;
2022/01/17 00:52:12;;;;;;;19;10.8;;;;;;;2.15;67.27637;96407.79;;;;
2022/01/17 00:53:13;;;;;;;19;10.8;;;;;;;2.15;67.27637;96407.79;;;;
2022/01/17 00:54:13;;;;;;;19;10.8;;;;;;;2.15;67.27637;96407.79;;;;
2022/01/17 00:55:14;;;;;;;19;10.8;;;;;;;2.15;67.27637;96407.79;;;;
2022/01/17 00:56:15;;;;;;;19;10.8;;;;;;;2.15;67.27637;96407.79;;;;
2022/01/17 00:57:18;;;;;;;17.2;9.85;;;;;;;2.21;67.34863;96406.76;;;;
2022/01/17 00:58:19;;;;;;;17.2;9.85;;;;;;;2.21;67.34863;96406.76;;;;
2022/01/17 00:59:19;;;;;;;17.2;9.85;;;;;;;2.21;67.34863;96406.76;;;;
2022/01/17 01:00:20;;;;;;;17.2;9.85;;;;;;;2.21;67.34863;96406.76;;;;
2022/01/17 01:01:21;;;;;;;17.2;9.85;;;;;;;2.21;67.34863;96406.76;;;;
2022/01/17 01:02:21;;;;;;;17.2;9.85;;;;;;;2.21;67.34863;96406.76;;;;
2022/01/17 01:03:22;;;;;;;17.2;9.85;;;;;;;2.21;67.34863;96406.76;;;;
2022/01/17 01:04:23;;;;;;;17.2;9.85;;;;;;;2.21;67.34863;96406.76;;;;
2022/01/17 01:05:23;;;;;;;17.2;9.85;;;;;;;2.21;67.34863;96406.76;;;;
2022/01/17 01:06:24;;;;;;;17.2;9.85;;;;;;;2.21;67.34863;96406.76;;;;
2022/01/17 01:07:24;;;;;;;15.85;9.2;;;;;;;2.26;67.37695;96412.03;;;;
2022/01/17 01:08:25;;;;;;;15.85;9.2;;;;;;;2.26;67.37695;96412.03;;;;
2022/01/17 01:09:30;;;;;;;15.85;9.2;;;;;;;2.26;67.37695;96412.03;;;;
2022/01/17 01:10:30;;;;;;;15.85;9.2;;;;;;;2.26;67.37695;96412.03;;;;
2022/01/17 01:11:31;;;;;;;15.85;9.2;;;;;;;2.26;67.37695;96412.03;;;;
2022/01/17 01:12:32;;;;;;;15.85;9.2;;;;;;;2.26;67.37695;96412.03;;;;
2022/01/17 01:13:33;;;;;;;15.85;9.2;;;;;;;2.26;67.37695;96412.03;;;;
2022/01/17 01:14:34;;;;;;;15.85;9.2;;;;;;;2.26;67.37695;96412.03;;;;
2022/01/17 01:15:45;;;;;;;15.85;9.2;;;;;;;2.26;67.37695;96412.03;;;;
2022/01/17 01:16:46;;;;;;;15.85;9.2;;;;;;;2.26;67.37695;96412.03;;;;
2022/01/17 01:17:50;;;;;;;16;9.249999;;;;;;;2.32;67.33496;96422.06;;;;
2022/01/17 01:19:08;;;;;;;16;9.249999;;;;;;;2.32;67.33496;96422.06;;;;
2022/01/17 01:20:20;;;;;;;16;9.249999;;;;;;;2.32;67.33496;96422.06;;;;
2022/01/17 01:21:44;;;;;;;16;9.249999;;;;;;;2.32;67.33496;96422.06;;;;
2022/01/17 01:27:58;;;;;;;16;9.249999;;;;;;;2.32;67.33496;96422.06;;;;
2022/01/17 01:28:59;;;;;;;14.7;8.8;;;;;;;2.37;67.27734;96423.33;;;;
2022/01/17 01:30:01;;;;;;;14.7;8.8;;;;;;;2.37;67.27734;96423.33;;;;
2022/01/17 01:31:07;;;;;;;14.7;8.8;;;;;;;2.37;67.27734;96423.33;;;;
2022/01/17 01:32:10;;;;;;;14.7;8.8;;;;;;;2.37;67.27734;96423.33;;;;
2022/01/17 01:33:11;;;;;;;14.7;8.8;;;;;;;2.37;67.27734;96423.33;;;;
2022/01/17 01:34:12;;;;;;;14.7;8.8;;;;;;;2.37;67.27734;96423.33;;;;
2022/01/17 01:35:16;;;;;;;14.7;8.8;;;;;;;2.37;67.27734;96423.33;;;;
2022/01/17 01:36:22;;;;;;;14.7;8.8;;;;;;;2.37;67.27734;96423.33;;;;
2022/01/17 01:37:23;;;;;;;14.7;8.8;;;;;;;2.37;67.27734;96423.33;;;;
2022/01/17 01:38:23;;;;;;;14.7;8.8;;;;;;;2.37;67.27734;96423.33;;;;
2022/01/17 01:39:24;;;;;;;12.3;7.849999;;;;;;;2.45;67.35547;96437.95;;;;
2022/01/17 01:40:25;;;;;;;12.3;7.849999;;;;;;;2.45;67.35547;96437.95;;;;
2022/01/17 01:41:26;;;;;;;12.3;7.849999;;;;;;;2.45;67.35547;96437.95;;;;
2022/01/17 01:42:29;;;;;;;12.3;7.849999;;;;;;;2.45;67.35547;96437.95;;;;
2022/01/17 01:43:30;;;;;;;12.3;7.849999;;;;;;;2.45;67.35547;96437.95;;;;
2022/01/17 01:44:30;;;;;;;12.3;7.849999;;;;;;;2.45;67.35547;96437.95;;;;
2022/01/17 01:45:31;;;;;;;12.3;7.849999;;;;;;;2.45;67.35547;96437.95;;;;
2022/01/17 01:46:32;;;;;;;12.3;7.849999;;;;;;;2.45;67.35547;96437.95;;;;
2022/01/17 01:47:32;;;;;;;12.3;7.849999;;;;;;;2.45;67.35547;96437.95;;;;
2022/01/17 01:48:34;;;;;;;12.3;7.849999;;;;;;;2.45;67.35547;96437.95;;;;
2022/01/17 01:49:35;;;;;;;12.3;7.849999;;;;;;;2.45;67.35547;96437.95;;;;
2022/01/17 01:50:36;;;;;;;12.3;7.849999;;;;;;;2.45;67.35547;96437.95;;;;
2022/01/17 01:51:37;;;;;;;12.3;7.849999;;;;;;;2.45;67.35547;96437.95;;;;
2022/01/17 01:52:37;;;;;;;12.3;7.849999;;;;;;;2.45;67.35547;96437.95;;;;
2022/01/17 01:53:41;;;;;;;12.3;7.849999;;;;;;;2.45;67.35547;96437.95;;;;
2022/01/17 01:54:42;;;;;;;12.3;7.849999;;;;;;;2.45;67.35547;96437.95;;;;
2022/01/17 01:55:43;;;;;;;12.3;7.849999;;;;;;;2.45;67.35547;96437.95;;;;
2022/01/17 01:56:44;;;;;;;12.3;7.849999;;;;;;;2.45;67.35547;96437.95;;;;
2022/01/17 01:57:47;;;;;;;12.3;7.849999;;;;;;;2.45;67.35547;96437.95;;;;
2022/01/17 01:58:49;;;;;;;12.3;7.849999;;;;;;;2.45;67.35547;96437.95;;;;
2022/01/17 01:59:50;;;;;;;12.3;7.849999;;;;;;;2.45;67.35547;96437.95;;;;
2022/01/17 02:00:50;;;;;;;11.65;7.65;;;;;;;2.44;67.45898;96415.89;;;;
2022/01/17 02:01:52;;;;;;;11.65;7.65;;;;;;;2.44;67.45898;96415.89;;;;
2022/01/17 02:02:53;;;;;;;11.65;7.65;;;;;;;2.44;67.45898;96415.89;;;;
2022/01/17 02:03:53;;;;;;;11.65;7.65;;;;;;;2.44;67.45898;96415.89;;;;
2022/01/17 02:04:54;;;;;;;11.65;7.65;;;;;;;2.44;67.45898;96415.89;;;;
2022/01/17 02:05:54;;;;;;;11.65;7.65;;;;;;;2.44;67.45898;96415.89;;;;
2022/01/17 02:06:56;;;;;;;11.65;7.65;;;;;;;2.44;67.45898;96415.89;;;;
2022/01/17 02:07:56;;;;;;;11.65;7.65;;;;;;;2.44;67.45898;96415.89;;;;
2022/01/17 02:08:57;;;;;;;11.65;7.65;;;;;;;2.44;67.45898;96415.89;;;;
2022/01/17 02:09:57;;;;;;;11.65;7.65;;;;;;;2.44;67.45898;96415.89;;;;
2022/01/17 02:10:58;;;;;;;8.849999;6.749999;;;;;;;2.35;67.51953;96387.94;;;;
2022/01/17 02:11:58;;;;;;;8.849999;6.749999;;;;;;;2.35;67.51953;96387.94;;;;
2022/01/17 02:12:59;;;;;;;8.849999;6.749999;;;;;;;2.35;67.51953;96387.94;;;;
2022/01/17 02:13:59;;;;;;;8.849999;6.749999;;;;;;;2.35;67.51953;96387.94;;;;
2022/01/17 02:15:01;;;;;;;8.849999;6.749999;;;;;;;2.35;67.51953;96387.94;;;;
2022/01/17 02:16:03;;;;;;;8.849999;6.749999;;;;;;;2.35;67.51953;96387.94;;;;
2022/01/17 02:17:06;;;;;;;8.849999;6.749999;;;;;;;2.35;67.51953;96387.94;;;;
2022/01/17 02:18:08;;;;;;;8.849999;6.749999;;;;;;;2.35;67.51953;96387.94;;;;
2022/01/17 02:19:09;;;;;;;8.849999;6.749999;;;;;;;2.35;67.51953;96387.94;;;;
2022/01/17 02:20:09;;;;;;;8.849999;6.749999;;;;;;;2.35;67.51953;96387.94;;;;
2022/01/17 02:21:20;;;;;;;8.849999;6.749999;;;;;;;2.35;67.51953;96387.94;;;;
2022/01/17 02:22:21;;;;;;;8.849999;6.749999;;;;;;;2.35;67.51953;96387.94;;;;
2022/01/17 02:23:21;;;;;;;8.849999;6.749999;;;;;;;2.35;67.51953;96387.94;;;;
2022/01/17 02:24:22;;;;;;;8.849999;6.749999;;;;;;;2.35;67.51953;96387.94;;;;
2022/01/17 02:25:23;;;;;;;8.849999;6.749999;;;;;;;2.35;67.51953;96387.94;;;;
2022/01/17 02:26:23;;;;;;;8.849999;6.749999;;;;;;;2.35;67.51953;96387.94;;;;
2022/01/17 02:27:24;;;;;;;8.849999;6.749999;;;;;;;2.35;67.51953;96387.94;;;;
2022/01/17 02:28:25;;;;;;;8.849999;6.749999;;;;;;;2.35;67.51953;96387.94;;;;
2022/01/17 02:29:26;;;;;;;8.849999;6.749999;;;;;;;2.35;67.51953;96387.94;;;;
2022/01/17 02:30:31;;;;;;;8.849999;6.749999;;;;;;;2.35;67.51953;96387.94;;;;
2022/01/17 02:31:32;;;;;;;8.849999;6.749999;;;;;;;2.35;67.51953;96387.94;;;;
2022/01/17 02:32:33;;;;;;;9.3;6;;;;;;;2.2;67.74805;96378.44;;;;
2022/01/17 02:33:34;;;;;;;9.3;6;;;;;;;2.2;67.74805;96378.44;;;;
2022/01/17 02:34:35;;;;;;;9.3;6;;;;;;;2.2;67.74805;96378.44;;;;
2022/01/17 02:35:40;;;;;;;9.3;6;;;;;;;2.2;67.74805;96378.44;;;;
2022/01/17 02:36:46;;;;;;;9.3;6;;;;;;;2.2;67.74805;96378.44;;;;
2022/01/17 02:37:46;;;;;;;9.3;6;;;;;;;2.2;67.74805;96378.44;;;;
2022/01/17 02:38:48;;;;;;;9.3;6;;;;;;;2.2;67.74805;96378.44;;;;
2022/01/17 02:39:49;;;;;;;9.3;6;;;;;;;2.2;67.74805;96378.44;;;;
2022/01/17 02:40:49;;;;;;;9.3;6;;;;;;;2.2;67.74805;96378.44;;;;
2022/01/17 02:41:50;;;;;;;9.3;6;;;;;;;2.2;67.74805;96378.44;;;;
2022/01/17 02:42:51;;;;;;;9.3;6;;;;;;;2.2;67.74805;96378.44;;;;
2022/01/17 02:43:53;;;;;;;9.500001;5.9;;;;;;;2.19;67.88184;96393.19;;;;
2022/01/17 02:44:59;;;;;;;9.500001;5.9;;;;;;;2.19;67.88184;96393.19;;;;
2022/01/17 02:46:32;;;;;;;9.500001;5.9;;;;;;;2.19;67.88184;96393.19;;;;
2022/01/17 02:47:33;;;;;;;9.500001;5.9;;;;;;;2.19;67.88184;96393.19;;;;
2022/01/17 02:48:33;;;;;;;9.500001;5.9;;;;;;;2.19;67.88184;96393.19;;;;
2022/01/17 02:49:37;;;;;;;9.500001;5.9;;;;;;;2.19;67.88184;96393.19;;;;
2022/01/17 02:50:39;;;;;;;9.500001;5.9;;;;;;;2.19;67.88184;96393.19;;;;
2022/01/17 02:51:43;;;;;;;9.500001;5.9;;;;;;;2.19;67.88184;96393.19;;;;
2022/01/17 02:52:44;;;;;;;9.500001;5.9;;;;;;;2.19;67.88184;96393.19;;;;
2022/01/17 02:53:45;;;;;;;9.500001;5.9;;;;;;;2.19;67.88184;96393.19;;;;
2022/01/17 02:54:45;;;;;;;9.500001;5.9;;;;;;;2.19;67.88184;96393.19;;;;
2022/01/17 02:55:46;;;;;;;9.500001;5.9;;;;;;;2.19;67.88184;96393.19;;;;
2022/01/17 02:56:50;;;;;;;9.500001;5.9;;;;;;;2.19;67.88184;96393.19;;;;
2022/01/17 02:57:50;;;;;;;9.500001;5.9;;;;;;;2.19;67.88184;96393.19;;;;
2022/01/17 02:58:51;;;;;;;9.500001;5.9;;;;;;;2.19;67.88184;96393.19;;;;
2022/01/17 02:59:52;;;;;;;9.500001;5.9;;;;;;;2.19;67.88184;96393.19;;;;
2022/01/17 03:00:52;;;;;;;9.500001;5.9;;;;;;;2.19;67.88184;96393.19;;;;
2022/01/17 03:01:56;;;;;;;9.500001;5.9;;;;;;;2.19;67.88184;96393.19;;;;
2022/01/17 03:02:56;;;;;;;9.500001;5.9;;;;;;;2.19;67.88184;96393.19;;;;
2022/01/17 03:03:57;;;;;;;9.500001;5.9;;;;;;;2.19;67.88184;96393.19;;;;
2022/01/17 03:04:58;;;;;;;10.05;6.25;;;;;;;2.33;68.48438;96355.29;;;;
2022/01/17 03:05:58;;;;;;;10.05;6.25;;;;;;;2.33;68.48438;96355.29;;;;
2022/01/17 03:06:59;;;;;;;10.05;6.25;;;;;;;2.33;68.48438;96355.29;;;;
2022/01/17 03:08:00;;;;;;;10.05;6.25;;;;;;;2.33;68.48438;96355.29;;;;
2022/01/17 03:09:02;;;;;;;10.05;6.25;;;;;;;2.33;68.48438;96355.29;;;;
2022/01/17 03:10:06;;;;;;;10.05;6.25;;;;;;;2.33;68.48438;96355.29;;;;
2022/01/17 03:11:07;;;;;;;10.05;6.25;;;;;;;2.33;68.48438;96355.29;;;;
2022/01/17 03:12:11;;;;;;;10.05;6.25;;;;;;;2.33;68.48438;96355.29;;;;
2022/01/17 03:13:12;;;;;;;10.05;6.25;;;;;;;2.33;68.48438;96355.29;;;;
2022/01/17 03:14:15;;;;;;;10.05;6.25;;;;;;;2.33;68.48438;96355.29;;;;
2022/01/17 03:15:15;;;;;;;9;6.299999;;;;;;;2.35;68.86523;96345.31;;;;
2022/01/17 03:16:16;;;;;;;9;6.299999;;;;;;;2.35;68.86523;96345.31;;;;
2022/01/17 03:17:18;;;;;;;9;6.299999;;;;;;;2.35;68.86523;96345.31;;;;
2022/01/17 03:18:19;;;;;;;9;6.299999;;;;;;;2.35;68.86523;96345.31;;;;
2022/01/17 03:19:19;;;;;;;9;6.299999;;;;;;;2.35;68.86523;96345.31;;;;
2022/01/17 03:20:20;;;;;;;9;6.299999;;;;;;;2.35;68.86523;96345.31;;;;
2022/01/17 03:21:21;;;;;;;9;6.299999;;;;;;;2.35;68.86523;96345.31;;;;
2022/01/17 03:22:21;;;;;;;9;6.299999;;;;;;;2.35;68.86523;96345.31;;;;
2022/01/17 03:23:22;;;;;;;9;6.299999;;;;;;;2.35;68.86523;96345.31;;;;
2022/01/17 03:24:23;;;;;;;9;6.299999;;;;;;;2.35;68.86523;96345.31;;;;
2022/01/17 03:25:23;;;;;;;9;6.299999;;;;;;;2.35;68.86523;96345.31;;;;
2022/01/17 03:26:29;;;;;;;9.95;6.299999;;;;;;;2.27;69.03906;96344.02;;;;
2022/01/17 03:27:29;;;;;;;9.95;6.299999;;;;;;;2.27;69.03906;96344.02;;;;
2022/01/17 03:28:30;;;;;;;9.95;6.299999;;;;;;;2.27;69.03906;96344.02;;;;
2022/01/17 03:29:31;;;;;;;9.95;6.299999;;;;;;;2.27;69.03906;96344.02;;;;
2022/01/17 03:30:33;;;;;;;9.95;6.299999;;;;;;;2.27;69.03906;96344.02;;;;
2022/01/17 03:31:34;;;;;;;9.95;6.299999;;;;;;;2.27;69.03906;96344.02;;;;
2022/01/17 03:32:35;;;;;;;9.95;6.299999;;;;;;;2.27;69.03906;96344.02;;;;
2022/01/17 03:33:35;;;;;;;9.95;6.299999;;;;;;;2.27;69.03906;96344.02;;;;
2022/01/17 03:34:39;;;;;;;9.95;6.299999;;;;;;;2.27;69.03906;96344.02;;;;
2022/01/17 03:35:40;;;;;;;9.95;6.299999;;;;;;;2.27;69.03906;96344.02;;;;
2022/01/17 03:36:41;;;;;;;11.85;6.6;;;;;;;2.21;69.66113;96370.79;;;;
2022/01/17 03:37:42;;;;;;;11.85;6.6;;;;;;;2.21;69.66113;96370.79;;;;
2022/01/17 03:38:43;;;;;;;11.85;6.6;;;;;;;2.21;69.66113;96370.79;;;;
2022/01/17 03:39:43;;;;;;;11.85;6.6;;;;;;;2.21;69.66113;96370.79;;;;
2022/01/17 03:40:46;;;;;;;11.85;6.6;;;;;;;2.21;69.66113;96370.79;;;;
2022/01/17 03:41:48;;;;;;;11.85;6.6;;;;;;;2.21;69.66113;96370.79;;;;
2022/01/17 03:42:48;;;;;;;11.85;6.6;;;;;;;2.21;69.66113;96370.79;;;;
2022/01/17 03:43:49;;;;;;;11.85;6.6;;;;;;;2.21;69.66113;96370.79;;;;
2022/01/17 03:44:50;;;;;;;11.85;6.6;;;;;;;2.21;69.66113;96370.79;;;;
2022/01/17 03:45:51;;;;;;;11.85;6.6;;;;;;;2.21;69.66113;96370.79;;;;
2022/01/17 03:46:52;;;;;;;11.85;6.6;;;;;;;2.21;69.66113;96370.79;;;;
2022/01/17 03:47:52;;;;;;;9.35;6.599999;;;;;;;2.23;70.07422;96378.53;;;;
2022/01/17 03:48:53;;;;;;;9.35;6.599999;;;;;;;2.23;70.07422;96378.53;;;;
2022/01/17 03:49:53;;;;;;;9.35;6.599999;;;;;;;2.23;70.07422;96378.53;;;;
2022/01/17 03:50:55;;;;;;;9.35;6.599999;;;;;;;2.23;70.07422;96378.53;;;;
2022/01/17 03:51:56;;;;;;;9.35;6.599999;;;;;;;2.23;70.07422;96378.53;;;;
2022/01/17 03:52:56;;;;;;;9.35;6.599999;;;;;;;2.23;70.07422;96378.53;;;;
2022/01/17 03:53:57;;;;;;;9.35;6.599999;;;;;;;2.23;70.07422;96378.53;;;;
2022/01/17 03:54:58;;;;;;;9.35;6.599999;;;;;;;2.23;70.07422;96378.53;;;;
2022/01/17 03:55:58;;;;;;;9.35;6.599999;;;;;;;2.23;70.07422;96378.53;;;;
2022/01/17 03:57:00;;;;;;;9.35;6.599999;;;;;;;2.23;70.07422;96378.53;;;;
2022/01/17 03:58:01;;;;;;;9.85;6.749999;;;;;;;2.24;70.06641;96354.91;;;;
2022/01/17 03:59:03;;;;;;;9.85;6.749999;;;;;;;2.24;70.06641;96354.91;;;;
2022/01/17 04:00:03;;;;;;;9.85;6.749999;;;;;;;2.24;70.06641;96354.91;;;;
2022/01/17 04:01:09;;;;;;;9.85;6.749999;;;;;;;2.24;70.06641;96354.91;;;;
2022/01/17 04:02:09;;;;;;;9.85;6.749999;;;;;;;2.24;70.06641;96354.91;;;;
2022/01/17 04:03:10;;;;;;;9.85;6.749999;;;;;;;2.24;70.06641;96354.91;;;;
2022/01/17 04:04:11;;;;;;;9.85;6.749999;;;;;;;2.24;70.06641;96354.91;;;;
2022/01/17 04:05:11;;;;;;;9.85;6.749999;;;;;;;2.24;70.06641;96354.91;;;;
2022/01/17 04:06:14;;;;;;;9.85;6.749999;;;;;;;2.24;70.06641;96354.91;;;;
2022/01/17 04:07:15;;;;;;;9.85;6.749999;;;;;;;2.24;70.06641;96354.91;;;;
2022/01/17 04:08:15;;;;;;;9.85;6.749999;;;;;;;2.24;70.06641;96354.91;;;;
2022/01/17 04:09:16;;;;;;;10.05;6.550001;;;;;;;2;70.9502;96311.3;;;;
2022/01/17 04:10:16;;;;;;;10.05;6.550001;;;;;;;2;70.9502;96311.3;;;;
2022/01/17 04:11:17;;;;;;;10.05;6.550001;;;;;;;2;70.9502;96311.3;;;;
2022/01/17 04:12:18;;;;;;;10.05;6.550001;;;;;;;2;70.9502;96311.3;;;;
2022/01/17 04:13:18;;;;;;;10.05;6.550001;;;;;;;2;70.9502;96311.3;;;;
2022/01/17 04:14:19;;;;;;;10.05;6.550001;;;;;;;2;70.9502;96311.3;;;;
2022/01/17 04:15:20;;;;;;;10.05;6.550001;;;;;;;2;70.9502;96311.3;;;;
2022/01/17 04:16:20;;;;;;;10.05;6.550001;;;;;;;2;70.9502;96311.3;;;;
2022/01/17 04:17:21;;;;;;;10.05;6.550001;;;;;;;2;70.9502;96311.3;;;;
2022/01/17 04:18:24;;;;;;;10.05;6.550001;;;;;;;2;70.9502;96311.3;;;;
2022/01/17 04:19:24;;;;;;;9.65;5.900001;;;;;;;1.71;71.41602;96317.38;;;;
2022/01/17 04:20:27;;;;;;;9.65;5.900001;;;;;;;1.71;71.41602;96317.38;;;;
2022/01/17 04:21:33;;;;;;;9.65;5.900001;;;;;;;1.71;71.41602;96317.38;;;;
2022/01/17 04:22:36;;;;;;;9.65;5.900001;;;;;;;1.71;71.41602;96317.38;;;;
2022/01/17 04:23:41;;;;;;;9.65;5.900001;;;;;;;1.71;71.41602;96317.38;;;;
2022/01/17 04:24:42;;;;;;;9.65;5.900001;;;;;;;1.71;71.41602;96317.38;;;;
2022/01/17 04:25:42;;;;;;;9.65;5.900001;;;;;;;1.71;71.41602;96317.38;;;;
2022/01/17 04:26:45;;;;;;;9.65;5.900001;;;;;;;1.71;71.41602;96317.38;;;;
2022/01/17 04:27:45;;;;;;;9.65;5.900001;;;;;;;1.71;71.41602;96317.38;;;;
2022/01/17 04:28:46;;;;;;;9.65;5.900001;;;;;;;1.71;71.41602;96317.38;;;;
2022/01/17 04:29:47;;;;;;;8.550001;5.599999;;;;;;;1.62;71.94727;96355.58;;;;
2022/01/17 04:30:47;;;;;;;8.550001;5.599999;;;;;;;1.62;71.94727;96355.58;;;;
2022/01/17 04:31:48;;;;;;;8.550001;5.599999;;;;;;;1.62;71.94727;96355.58;;;;
2022/01/17 04:32:48;;;;;;;8.550001;5.599999;;;;;;;1.62;71.94727;96355.58;;;;
2022/01/17 04:33:50;;;;;;;8.550001;5.599999;;;;;;;1.62;71.94727;96355.58;;;;
2022/01/17 04:34:50;;;;;;;8.550001;5.599999;;;;;;;1.62;71.94727;96355.58;;;;
2022/01/17 04:35:51;;;;;;;8.550001;5.599999;;;;;;;1.62;71.94727;96355.58;;;;
2022/01/17 04:36:51;;;;;;;8.550001;5.599999;;;;;;;1.62;71.94727;96355.58;;;;
2022/01/17 04:37:52;;;;;;;8.550001;5.599999;;;;;;;1.62;71.94727;96355.58;;;;
2022/01/17 04:38:55;;;;;;;8.550001;5.599999;;;;;;;1.62;71.94727;96355.58;;;;
2022/01/17 04:39:55;;;;;;;8.550001;5.599999;;;;;;;1.62;71.94727;96355.58;;;;
2022/01/17 04:41:02;;;;;;;8.999998;5.799999;;;;;;;1.8;71.78809;96387.91;;;;
2022/01/17 04:42:11;;;;;;;8.999998;5.799999;;;;;;;1.8;71.78809;96387.91;;;;
2022/01/17 04:43:17;;;;;;;8.999998;5.799999;;;;;;;1.8;71.78809;96387.91;;;;
2022/01/17 04:45:23;;;;;;;8.999998;5.799999;;;;;;;1.8;71.78809;96387.91;;;;
2022/01/17 04:46:24;;;;;;;8.999998;5.799999;;;;;;;1.8;71.78809;96387.91;;;;
2022/01/17 04:47:24;;;;;;;8.999998;5.799999;;;;;;;1.8;71.78809;96387.91;;;;
2022/01/17 04:48:26;;;;;;;8.999998;5.799999;;;;;;;1.8;71.78809;96387.91;;;;
2022/01/17 04:49:26;;;;;;;8.999998;5.799999;;;;;;;1.8;71.78809;96387.91;;;;
2022/01/17 04:50:27;;;;;;;8.999998;5.799999;;;;;;;1.8;71.78809;96387.91;;;;
2022/01/17 04:51:28;;;;;;;8.6;5.75;;;;;;;1.96;71.49902;96396.95;;;;
2022/01/17 04:52:28;;;;;;;8.6;5.75;;;;;;;1.96;71.49902;96396.95;;;;
2022/01/17 04:53:29;;;;;;;8.6;5.75;;;;;;;1.96;71.49902;96396.95;;;;
2022/01/17 04:54:41;;;;;;;8.6;5.75;;;;;;;1.96;71.49902;96396.95;;;;
2022/01/17 04:55:41;;;;;;;8.6;5.75;;;;;;;1.96;71.49902;96396.95;;;;
2022/01/17 04:56:42;;;;;;;8.6;5.75;;;;;;;1.96;71.49902;96396.95;;;;
2022/01/17 04:57:43;;;;;;;8.6;5.75;;;;;;;1.96;71.49902;96396.95;;;;
2022/01/17 04:58:44;;;;;;;8.6;5.75;;;;;;;1.96;71.49902;96396.95;;;;
2022/01/17 04:59:45;;;;;;;8.6;5.75;;;;;;;1.96;71.49902;96396.95;;;;
2022/01/17 05:00:46;;;;;;;8.6;5.75;;;;;;;1.96;71.49902;96396.95;;;;
2022/01/17 05:01:48;;;;;;;11.15;6.45;;;;;;;2.06;71.47461;96420.31;;;;
2022/01/17 05:02:48;;;;;;;11.15;6.45;;;;;;;2.06;71.47461;96420.31;;;;
2022/01/17 05:03:49;;;;;;;11.15;6.45;;;;;;;2.06;71.47461;96420.31;;;;
2022/01/17 05:04:51;;;;;;;11.15;6.45;;;;;;;2.06;71.47461;96420.31;;;;
2022/01/17 05:05:51;;;;;;;11.15;6.45;;;;;;;2.06;71.47461;96420.31;;;;
2022/01/17 05:06:53;;;;;;;11.15;6.45;;;;;;;2.06;71.47461;96420.31;;;;
2022/01/17 05:07:53;;;;;;;11.15;6.45;;;;;;;2.06;71.47461;96420.31;;;;
2022/01/17 05:08:54;;;;;;;11.15;6.45;;;;;;;2.06;71.47461;96420.31;;;;
2022/01/17 05:09:54;;;;;;;11.15;6.45;;;;;;;2.06;71.47461;96420.31;;;;
2022/01/17 05:10:55;;;;;;;11.15;6.45;;;;;;;2.06;71.47461;96420.31;;;;
2022/01/17 05:11:56;;;;;;;11.15;6.45;;;;;;;2.06;71.47461;96420.31;;;;
2022/01/17 05:12:56;;;;;;;9.000002;5.65;;;;;;;2.14;71.45703;96417.19;;;;
2022/01/17 05:13:57;;;;;;;9.000002;5.65;;;;;;;2.14;71.45703;96417.19;;;;
2022/01/17 05:14:59;;;;;;;9.000002;5.65;;;;;;;2.14;71.45703;96417.19;;;;
2022/01/17 05:16:08;;;;;;;9.000002;5.65;;;;;;;2.14;71.45703;96417.19;;;;
2022/01/17 05:17:23;;;;;;;9.000002;5.65;;;;;;;2.14;71.45703;96417.19;;;;
2022/01/17 05:19:47;;;;;;;9.000002;5.65;;;;;;;2.14;71.45703;96417.19;;;;
2022/01/17 05:20:48;;;;;;;9.000002;5.65;;;;;;;2.14;71.45703;96417.19;;;;
2022/01/17 05:21:49;;;;;;;9.000002;5.65;;;;;;;2.14;71.45703;96417.19;;;;
2022/01/17 05:22:49;;;;;;;9.000002;5.65;;;;;;;2.14;71.45703;96417.19;;;;
2022/01/17 05:23:50;;;;;;;10.05;6.2;;;;;;;2.22;71.52344;96384.87;;;;
2022/01/17 05:24:50;;;;;;;10.05;6.2;;;;;;;2.22;71.52344;96384.87;;;;
2022/01/17 05:25:51;;;;;;;10.05;6.2;;;;;;;2.22;71.52344;96384.87;;;;
2022/01/17 05:26:51;;;;;;;10.05;6.2;;;;;;;2.22;71.52344;96384.87;;;;
2022/01/17 05:27:52;;;;;;;10.05;6.2;;;;;;;2.22;71.52344;96384.87;;;;
2022/01/17 05:28:53;;;;;;;10.05;6.2;;;;;;;2.22;71.52344;96384.87;;;;
2022/01/17 05:29:53;;;;;;;10.05;6.2;;;;;;;2.22;71.52344;96384.87;;;;
2022/01/17 05:30:54;;;;;;;10.05;6.2;;;;;;;2.22;71.52344;96384.87;;;;
2022/01/17 05:31:54;;;;;;;10.05;6.2;;;;;;;2.22;71.52344;96384.87;;;;
2022/01/17 05:32:55;;;;;;;10.05;6.2;;;;;;;2.22;71.52344;96384.87;;;;
2022/01/17 05:33:55;;;;;;;10.3;6.15;;;;;;;2.28;71.50195;96389.58;;;;
2022/01/17 05:34:56;;;;;;;10.3;6.15;;;;;;;2.28;71.50195;96389.58;;;;
2022/01/17 05:35:56;;;;;;;10.3;6.15;;;;;;;2.28;71.50195;96389.58;;;;
2022/01/17 05:36:57;;;;;;;10.3;6.15;;;;;;;2.28;71.50195;96389.58;;;;
2022/01/17 05:37:57;;;;;;;10.3;6.15;;;;;;;2.28;71.50195;96389.58;;;;
2022/01/17 05:38:58;;;;;;;10.3;6.15;;;;;;;2.28;71.50195;96389.58;;;;
2022/01/17 05:39:58;;;;;;;10.3;6.15;;;;;;;2.28;71.50195;96389.58;;;;
2022/01/17 05:40:59;;;;;;;10.3;6.15;;;;;;;2.28;71.50195;96389.58;;;;
2022/01/17 05:41:59;;;;;;;10.3;6.15;;;;;;;2.28;71.50195;96389.58;;;;
2022/01/17 05:43:00;;;;;;;10.3;6.15;;;;;;;2.28;71.50195;96389.58;;;;
2022/01/17 05:44:00;;;;;;;10.3;6.15;;;;;;;2.28;71.50195;96389.58;;;;
2022/01/17 05:45:01;;;;;;;9.5;5.699999;;;;;;;2.35;71.70996;96394.67;;;;
2022/01/17 05:46:04;;;;;;;9.5;5.699999;;;;;;;2.35;71.70996;96394.67;;;;
2022/01/17 05:47:06;;;;;;;9.5;5.699999;;;;;;;2.35;71.70996;96394.67;;;;
2022/01/17 05:48:06;;;;;;;9.5;5.699999;;;;;;;2.35;71.70996;96394.67;;;;
2022/01/17 05:49:07;;;;;;;9.5;5.699999;;;;;;;2.35;71.70996;96394.67;;;;
2022/01/17 05:50:07;;;;;;;9.5;5.699999;;;;;;;2.35;71.70996;96394.67;;;;
2022/01/17 05:51:09;;;;;;;9.5;5.699999;;;;;;;2.35;71.70996;96394.67;;;;
2022/01/17 05:52:09;;;;;;;9.5;5.699999;;;;;;;2.35;71.70996;96394.67;;;;
2022/01/17 05:53:11;;;;;;;9.5;5.699999;;;;;;;2.35;71.70996;96394.67;;;;